sensor_id;sensor_type;location;lat;lon;timestamp;temperature;humidity
13072;DHT22;6602;58.934;11.166;2023-02-15T00:03:07;5.00;99.90
13072;DHT22;6602;58.934;11.166;2023-02-15T00:08:26;5.00;99.90
13072;DHT22;6602;58.934;11.166;2023-02-15T00:13:46;5.00;99.90
13072;DHT22;6602;58.934;11.166;2023-02-15T00:19:07;5.00;99.90
13072;DHT22;6602;58.934;11.166;2023-02-15T00:24:27;5.10;99.90
13072;DHT22;6602;58.934;11.166;2023-02-15T00:29:47;5.10;99.90
13072;DHT22;6602;58.934;11.166;2023-02-15T00:35:06;5.10;99.90
13072;DHT22;6602;58.934;11.166;2023-02-15T00:40:26;5.10;99.90
13072;DHT22;6602;58.934;11.166;2023-02-15T00:45:48;5.20;99.90
13072;DHT22;6602;58.934;11.166;2023-02-15T00:51:07;5.20;99.90
13072;DHT22;6602;58.934;11.166;2023-02-15T00:56:28;5.20;99.90
13072;DHT22;6602;58.934;11.166;2023-02-15T01:01:48;5.20;99.90
13072;DHT22;6602;58.934;11.166;2023-02-15T01:07:08;5.20;99.90
13072;DHT22;6602;58.934;11.166;2023-02-15T01:12:30;5.20;99.90
13072;DHT22;6602;58.934;11.166;2023-02-15T01:17:51;5.20;99.90
13072;DHT22;6602;58.934;11.166;2023-02-15T01:23:12;5.20;99.90
13072;DHT22;6602;58.934;11.166;2023-02-15T01:28:31;5.20;99.90
13072;DHT22;6602;58.934;11.166;2023-02-15T01:33:51;5.20;99.90
13072;DHT22;6602;58.934;11.166;2023-02-15T01:39:10;5.20;99.90
13072;DHT22;6602;58.934;11.166;2023-02-15T01:44:56;5.20;99.90
13072;DHT22;6602;58.934;11.166;2023-02-15T01:50:29;5.30;99.90
13072;DHT22;6602;58.934;11.166;2023-02-15T01:56:00;5.20;99.90
13072;DHT22;6602;58.934;11.166;2023-02-15T02:01:22;5.20;99.90
13072;DHT22;6602;58.934;11.166;2023-02-15T02:06:46;5.20;99.90
13072;DHT22;6602;58.934;11.166;2023-02-15T02:12:07;5.20;99.90
13072;DHT22;6602;58.934;11.166;2023-02-15T02:39:30;5.10;99.90
13072;DHT22;6602;58.934;11.166;2023-02-15T02:45:15;5.10;99.90
13072;DHT22;6602;58.934;11.166;2023-02-15T02:50:35;5.20;99.90
13072;DHT22;6602;58.934;11.166;2023-02-15T02:56:07;5.20;99.90
13072;DHT22;6602;58.934;11.166;2023-02-15T03:01:40;5.10;99.90
13072;DHT22;6602;58.934;11.166;2023-02-15T03:07:09;5.10;99.90
13072;DHT22;6602;58.934;11.166;2023-02-15T03:12:38;5.10;99.90
13072;DHT22;6602;58.934;11.166;2023-02-15T03:18:01;5.10;99.90
13072;DHT22;6602;58.934;11.166;2023-02-15T03:23:24;5.10;99.90
13072;DHT22;6602;58.934;11.166;2023-02-15T03:28:46;5.10;99.90
13072;DHT22;6602;58.934;11.166;2023-02-15T03:34:11;5.10;99.90
13072;DHT22;6602;58.934;11.166;2023-02-15T03:39:42;5.10;99.90
13072;DHT22;6602;58.934;11.166;2023-02-15T03:45:09;5.10;99.90
13072;DHT22;6602;58.934;11.166;2023-02-15T03:50:31;5.10;99.90
13072;DHT22;6602;58.934;11.166;2023-02-15T03:56:10;5.10;99.90
13072;DHT22;6602;58.934;11.166;2023-02-15T04:01:40;5.10;99.90
13072;DHT22;6602;58.934;11.166;2023-02-15T04:07:16;5.20;99.90
13072;DHT22;6602;58.934;11.166;2023-02-15T04:12:36;5.10;99.90
13072;DHT22;6602;58.934;11.166;2023-02-15T04:17:55;5.20;99.90
13072;DHT22;6602;58.934;11.166;2023-02-15T04:23:15;5.10;99.90
13072;DHT22;6602;58.934;11.166;2023-02-15T04:28:53;5.10;99.90
13072;DHT22;6602;58.934;11.166;2023-02-15T04:34:13;5.20;99.90
13072;DHT22;6602;58.934;11.166;2023-02-15T04:39:36;5.20;99.90
13072;DHT22;6602;58.934;11.166;2023-02-15T04:44:56;5.20;99.90
13072;DHT22;6602;58.934;11.166;2023-02-15T04:50:17;5.20;99.90
13072;DHT22;6602;58.934;11.166;2023-02-15T04:55:36;5.20;99.90
13072;DHT22;6602;58.934;11.166;2023-02-15T05:00:57;5.20;99.90
13072;DHT22;6602;58.934;11.166;2023-02-15T05:06:16;5.30;99.90
13072;DHT22;6602;58.934;11.166;2023-02-15T05:11:39;5.30;99.90
13072;DHT22;6602;58.934;11.166;2023-02-15T05:16:58;5.30;99.90
13072;DHT22;6602;58.934;11.166;2023-02-15T05:22:20;5.30;99.90
13072;DHT22;6602;58.934;11.166;2023-02-15T05:27:40;5.30;99.90
13072;DHT22;6602;58.934;11.166;2023-02-15T05:33:18;5.30;99.90
13072;DHT22;6602;58.934;11.166;2023-02-15T05:38:40;5.30;99.90
13072;DHT22;6602;58.934;11.166;2023-02-15T05:43:55;5.30;99.90
13072;DHT22;6602;58.934;11.166;2023-02-15T05:49:16;5.20;99.90
13072;DHT22;6602;58.934;11.166;2023-02-15T05:54:39;5.10;99.90
13072;DHT22;6602;58.934;11.166;2023-02-15T05:59:58;5.00;99.90
13072;DHT22;6602;58.934;11.166;2023-02-15T06:05:21;4.90;99.90
13072;DHT22;6602;58.934;11.166;2023-02-15T06:10:41;4.90;99.90
13072;DHT22;6602;58.934;11.166;2023-02-15T06:16:01;4.80;99.90
13072;DHT22;6602;58.934;11.166;2023-02-15T06:21:20;4.80;99.90
13072;DHT22;6602;58.934;11.166;2023-02-15T06:26:40;4.80;99.90
13072;DHT22;6602;58.934;11.166;2023-02-15T06:32:01;4.80;99.90
13072;DHT22;6602;58.934;11.166;2023-02-15T06:37:26;4.80;99.90
13072;DHT22;6602;58.934;11.166;2023-02-15T06:42:46;4.70;99.90
13072;DHT22;6602;58.934;11.166;2023-02-15T06:48:08;4.70;99.90
13072;DHT22;6602;58.934;11.166;2023-02-15T06:53:28;4.80;99.90
13072;DHT22;6602;58.934;11.166;2023-02-15T06:58:48;4.70;99.90
13072;DHT22;6602;58.934;11.166;2023-02-15T07:04:15;4.70;99.90
13072;DHT22;6602;58.934;11.166;2023-02-15T07:09:35;4.70;99.90
13072;DHT22;6602;58.934;11.166;2023-02-15T07:14:55;4.80;99.90
13072;DHT22;6602;58.934;11.166;2023-02-15T07:20:19;4.80;99.90
13072;DHT22;6602;58.934;11.166;2023-02-15T07:25:39;4.80;99.90
13072;DHT22;6602;58.934;11.166;2023-02-15T07:30:58;4.80;99.90
13072;DHT22;6602;58.934;11.166;2023-02-15T07:36:17;4.80;99.90
13072;DHT22;6602;58.934;11.166;2023-02-15T07:41:37;4.80;99.90
13072;DHT22;6602;58.934;11.166;2023-02-15T07:46:57;4.90;99.90
13072;DHT22;6602;58.934;11.166;2023-02-15T07:52:17;4.90;99.90
13072;DHT22;6602;58.934;11.166;2023-02-15T07:57:42;4.80;99.90
13072;DHT22;6602;58.934;11.166;2023-02-15T08:03:04;4.90;99.90
13072;DHT22;6602;58.934;11.166;2023-02-15T08:08:35;4.90;99.90
13072;DHT22;6602;58.934;11.166;2023-02-15T08:14:01;4.90;99.90
13072;DHT22;6602;58.934;11.166;2023-02-15T08:19:25;4.90;99.90
13072;DHT22;6602;58.934;11.166;2023-02-15T08:24:46;4.90;99.90
13072;DHT22;6602;58.934;11.166;2023-02-15T08:30:07;4.90;99.90
13072;DHT22;6602;58.934;11.166;2023-02-15T08:35:27;5.00;99.90
13072;DHT22;6602;58.934;11.166;2023-02-15T08:40:46;5.00;99.90
13072;DHT22;6602;58.934;11.166;2023-02-15T08:46:09;5.00;99.90
13072;DHT22;6602;58.934;11.166;2023-02-15T08:51:35;5.00;99.90
13072;DHT22;6602;58.934;11.166;2023-02-15T08:56:57;5.00;99.90
13072;DHT22;6602;58.934;11.166;2023-02-15T09:02:18;5.00;99.90
13072;DHT22;6602;58.934;11.166;2023-02-15T09:07:37;5.00;99.90
13072;DHT22;6602;58.934;11.166;2023-02-15T09:12:58;5.00;99.90
13072;DHT22;6602;58.934;11.166;2023-02-15T09:18:22;5.00;99.90
13072;DHT22;6602;58.934;11.166;2023-02-15T09:23:46;5.00;99.90
13072;DHT22;6602;58.934;11.166;2023-02-15T09:29:05;5.00;99.90
13072;DHT22;6602;58.934;11.166;2023-02-15T09:34:24;5.00;99.90
13072;DHT22;6602;58.934;11.166;2023-02-15T09:39:46;5.00;99.90
13072;DHT22;6602;58.934;11.166;2023-02-15T09:45:28;5.00;99.90
13072;DHT22;6602;58.934;11.166;2023-02-15T09:50:58;5.00;99.90
13072;DHT22;6602;58.934;11.166;2023-02-15T09:56:30;5.00;99.90
13072;DHT22;6602;58.934;11.166;2023-02-15T10:02:38;5.00;99.90
13072;DHT22;6602;58.934;11.166;2023-02-15T10:14:11;5.00;99.90
13072;DHT22;6602;58.934;11.166;2023-02-15T10:25:19;5.00;99.90
13072;DHT22;6602;58.934;11.166;2023-02-15T10:30:48;5.00;99.90
13072;DHT22;6602;58.934;11.166;2023-02-15T11:04:05;5.00;99.90
13072;DHT22;6602;58.934;11.166;2023-02-15T11:09:36;4.90;99.90
13072;DHT22;6602;58.934;11.166;2023-02-15T11:26:37;5.00;99.90
13072;DHT22;6602;58.934;11.166;2023-02-15T11:32:21;5.00;99.90
13072;DHT22;6602;58.934;11.166;2023-02-15T11:43:16;5.10;99.90
13072;DHT22;6602;58.934;11.166;2023-02-15T11:48:37;5.00;99.90
13072;DHT22;6602;58.934;11.166;2023-02-15T11:53:57;5.00;99.90
13072;DHT22;6602;58.934;11.166;2023-02-15T11:59:47;4.90;99.90
13072;DHT22;6602;58.934;11.166;2023-02-15T12:05:15;4.90;99.90
13072;DHT22;6602;58.934;11.166;2023-02-15T12:16:22;4.90;99.90
13072;DHT22;6602;58.934;11.166;2023-02-15T12:21:34;4.90;99.90
13072;DHT22;6602;58.934;11.166;2023-02-15T12:32:03;4.90;99.90
13072;DHT22;6602;58.934;11.166;2023-02-15T12:37:17;4.90;99.90
13072;DHT22;6602;58.934;11.166;2023-02-15T12:42:20;4.90;99.90
13072;DHT22;6602;58.934;11.166;2023-02-15T12:47:22;4.90;99.90
13072;DHT22;6602;58.934;11.166;2023-02-15T12:52:25;4.90;99.90
13072;DHT22;6602;58.934;11.166;2023-02-15T12:57:33;4.90;99.90
13072;DHT22;6602;58.934;11.166;2023-02-15T13:08:04;4.90;99.90
13072;DHT22;6602;58.934;11.166;2023-02-15T13:13:30;4.90;99.90
13072;DHT22;6602;58.934;11.166;2023-02-15T13:18:35;4.90;99.90
13072;DHT22;6602;58.934;11.166;2023-02-15T13:23:40;4.90;99.90
13072;DHT22;6602;58.934;11.166;2023-02-15T13:29:28;4.90;99.90
13072;DHT22;6602;58.934;11.166;2023-02-15T13:34:32;4.90;99.90
13072;DHT22;6602;58.934;11.166;2023-02-15T13:39:48;4.90;99.90
13072;DHT22;6602;58.934;11.166;2023-02-15T13:50:27;4.90;99.90
13072;DHT22;6602;58.934;11.166;2023-02-15T13:56:21;5.00;99.90
13072;DHT22;6602;58.934;11.166;2023-02-15T14:01:10;5.00;99.90
13072;DHT22;6602;58.934;11.166;2023-02-15T14:22:36;5.00;99.90
13072;DHT22;6602;58.934;11.166;2023-02-15T14:44:20;5.00;99.90
13072;DHT22;6602;58.934;11.166;2023-02-15T14:49:32;5.00;99.90
13072;DHT22;6602;58.934;11.166;2023-02-15T14:59:54;5.00;99.90
13072;DHT22;6602;58.934;11.166;2023-02-15T15:20:48;5.00;99.90
13072;DHT22;6602;58.934;11.166;2023-02-15T15:25:55;5.00;99.90
13072;DHT22;6602;58.934;11.166;2023-02-15T15:36:28;4.90;99.90
13072;DHT22;6602;58.934;11.166;2023-02-15T15:52:20;4.90;99.90
13072;DHT22;6602;58.934;11.166;2023-02-15T15:57:40;4.90;99.90
13072;DHT22;6602;58.934;11.166;2023-02-15T16:02:52;4.90;99.90
13072;DHT22;6602;58.934;11.166;2023-02-15T16:07:57;4.90;99.90
13072;DHT22;6602;58.934;11.166;2023-02-15T16:12:58;4.90;99.90
13072;DHT22;6602;58.934;11.166;2023-02-15T16:18:00;4.90;99.90
13072;DHT22;6602;58.934;11.166;2023-02-15T16:28:32;4.90;99.90
13072;DHT22;6602;58.934;11.166;2023-02-15T16:33:39;4.90;99.90
13072;DHT22;6602;58.934;11.166;2023-02-15T16:44:03;4.90;99.90
13072;DHT22;6602;58.934;11.166;2023-02-15T16:49:15;4.90;99.90
13072;DHT22;6602;58.934;11.166;2023-02-15T16:54:21;4.90;99.90
13072;DHT22;6602;58.934;11.166;2023-02-15T17:00:06;4.90;99.90
13072;DHT22;6602;58.934;11.166;2023-02-15T17:10:39;4.80;99.90
13072;DHT22;6602;58.934;11.166;2023-02-15T17:21:17;4.80;99.90
13072;DHT22;6602;58.934;11.166;2023-02-15T17:26:33;4.80;99.90
13072;DHT22;6602;58.934;11.166;2023-02-15T17:31:38;4.80;99.90
13072;DHT22;6602;58.934;11.166;2023-02-15T17:36:57;4.80;99.90
13072;DHT22;6602;58.934;11.166;2023-02-15T17:41:58;4.80;99.90
13072;DHT22;6602;58.934;11.166;2023-02-15T17:47:03;4.80;99.90
13072;DHT22;6602;58.934;11.166;2023-02-15T17:52:04;4.80;99.90
13072;DHT22;6602;58.934;11.166;2023-02-15T17:57:16;4.80;99.90
13072;DHT22;6602;58.934;11.166;2023-02-15T18:02:18;4.80;99.90
13072;DHT22;6602;58.934;11.166;2023-02-15T18:07:37;4.80;99.90
13072;DHT22;6602;58.934;11.166;2023-02-15T18:13:06;4.70;99.90
13072;DHT22;6602;58.934;11.166;2023-02-15T18:18:12;4.70;99.90
13072;DHT22;6602;58.934;11.166;2023-02-15T18:23:16;4.70;99.90
13072;DHT22;6602;58.934;11.166;2023-02-15T18:28:20;4.60;99.90
13072;DHT22;6602;58.934;11.166;2023-02-15T18:33:42;4.60;99.90
13072;DHT22;6602;58.934;11.166;2023-02-15T18:38:46;4.60;99.90
13072;DHT22;6602;58.934;11.166;2023-02-15T18:43:51;4.60;99.90
13072;DHT22;6602;58.934;11.166;2023-02-15T18:48:57;4.60;99.90
13072;DHT22;6602;58.934;11.166;2023-02-15T18:54:01;4.60;99.90
13072;DHT22;6602;58.934;11.166;2023-02-15T18:59:14;4.50;99.90
13072;DHT22;6602;58.934;11.166;2023-02-15T19:04:15;4.50;99.90
13072;DHT22;6602;58.934;11.166;2023-02-15T19:09:22;4.50;99.90
13072;DHT22;6602;58.934;11.166;2023-02-15T19:14:32;4.50;99.90
13072;DHT22;6602;58.934;11.166;2023-02-15T19:19:46;4.50;99.90
13072;DHT22;6602;58.934;11.166;2023-02-15T19:24:47;4.50;99.90
13072;DHT22;6602;58.934;11.166;2023-02-15T19:29:56;4.50;99.90
13072;DHT22;6602;58.934;11.166;2023-02-15T19:35:00;4.50;99.90
13072;DHT22;6602;58.934;11.166;2023-02-15T19:40:02;4.50;99.90
13072;DHT22;6602;58.934;11.166;2023-02-15T19:45:35;4.50;99.90
13072;DHT22;6602;58.934;11.166;2023-02-15T19:50:36;4.50;99.90
13072;DHT22;6602;58.934;11.166;2023-02-15T19:55:40;4.50;99.90
13072;DHT22;6602;58.934;11.166;2023-02-15T20:00:40;4.50;99.90
13072;DHT22;6602;58.934;11.166;2023-02-15T20:05:42;4.50;99.90
13072;DHT22;6602;58.934;11.166;2023-02-15T20:10:44;4.50;99.90
13072;DHT22;6602;58.934;11.166;2023-02-15T20:15:46;4.50;99.90
13072;DHT22;6602;58.934;11.166;2023-02-15T20:20:52;4.40;99.90
13072;DHT22;6602;58.934;11.166;2023-02-15T20:25:58;4.40;99.90
13072;DHT22;6602;58.934;11.166;2023-02-15T20:31:03;4.40;99.90
13072;DHT22;6602;58.934;11.166;2023-02-15T20:36:16;4.40;99.90
13072;DHT22;6602;58.934;11.166;2023-02-15T20:41:20;4.40;99.90
13072;DHT22;6602;58.934;11.166;2023-02-15T20:46:43;4.40;99.90
13072;DHT22;6602;58.934;11.166;2023-02-15T20:51:44;4.40;99.90
13072;DHT22;6602;58.934;11.166;2023-02-15T20:56:47;4.40;99.90
13072;DHT22;6602;58.934;11.166;2023-02-15T21:01:49;4.40;99.90
13072;DHT22;6602;58.934;11.166;2023-02-15T21:06:51;4.40;99.90
13072;DHT22;6602;58.934;11.166;2023-02-15T21:11:54;4.40;99.90
13072;DHT22;6602;58.934;11.166;2023-02-15T21:16:58;4.40;99.90
13072;DHT22;6602;58.934;11.166;2023-02-15T21:22:00;4.40;99.90
13072;DHT22;6602;58.934;11.166;2023-02-15T21:27:02;4.40;99.90
13072;DHT22;6602;58.934;11.166;2023-02-15T21:32:03;4.40;99.90
13072;DHT22;6602;58.934;11.166;2023-02-15T21:37:04;4.40;99.90
13072;DHT22;6602;58.934;11.166;2023-02-15T21:42:09;4.40;99.90
13072;DHT22;6602;58.934;11.166;2023-02-15T21:47:30;4.30;99.90
13072;DHT22;6602;58.934;11.166;2023-02-15T21:52:50;4.40;99.90
13072;DHT22;6602;58.934;11.166;2023-02-15T21:57:56;4.30;99.90
13072;DHT22;6602;58.934;11.166;2023-02-15T22:03:00;4.30;99.90
13072;DHT22;6602;58.934;11.166;2023-02-15T22:08:11;4.30;99.90
13072;DHT22;6602;58.934;11.166;2023-02-15T22:13:22;4.30;99.90
13072;DHT22;6602;58.934;11.166;2023-02-15T22:18:27;4.30;99.90
13072;DHT22;6602;58.934;11.166;2023-02-15T22:23:30;4.30;99.90
13072;DHT22;6602;58.934;11.166;2023-02-15T22:28:34;4.30;99.90
13072;DHT22;6602;58.934;11.166;2023-02-15T22:33:35;4.30;99.90
13072;DHT22;6602;58.934;11.166;2023-02-15T22:38:42;4.30;99.90
13072;DHT22;6602;58.934;11.166;2023-02-15T22:43:45;4.30;99.90
13072;DHT22;6602;58.934;11.166;2023-02-15T22:48:47;4.30;99.90
13072;DHT22;6602;58.934;11.166;2023-02-15T22:53:50;4.30;99.90
13072;DHT22;6602;58.934;11.166;2023-02-15T22:59:00;4.30;99.90
13072;DHT22;6602;58.934;11.166;2023-02-15T23:04:02;4.30;99.90
13072;DHT22;6602;58.934;11.166;2023-02-15T23:09:08;4.30;99.90
13072;DHT22;6602;58.934;11.166;2023-02-15T23:14:27;4.30;99.90
13072;DHT22;6602;58.934;11.166;2023-02-15T23:19:34;4.30;99.90
13072;DHT22;6602;58.934;11.166;2023-02-15T23:24:38;4.30;99.90
13072;DHT22;6602;58.934;11.166;2023-02-15T23:29:44;4.30;99.90
13072;DHT22;6602;58.934;11.166;2023-02-15T23:34:47;4.30;99.90
13072;DHT22;6602;58.934;11.166;2023-02-15T23:39:50;4.30;99.90
13072;DHT22;6602;58.934;11.166;2023-02-15T23:45:21;4.30;99.90
13072;DHT22;6602;58.934;11.166;2023-02-15T23:50:27;4.30;99.90
13072;DHT22;6602;58.934;11.166;2023-02-15T23:55:37;4.30;99.90
